Shafter, Texas
Current Conditions -  °F | °C
As of 10:15 PM on Friday 19 Dec 2014 (Local Time) from KPRS Reporting Station
Clear Clear  
Wind Chill: 52°   Ceiling: Unl
Heat Index: 52°   Visibility: 10mi
Dew Point: 31°   Wind: 8mph
Humidity: 45%   Direction: 10°N
Pressure: 30.13"   Gusts: NA
Location:  29.82°N, 104.3°W
Report Text: KPRS 200415Z AUTO 01007KT 10SM CLR 11/M01 A3013 RMK AO2 T01101006
Loading
Personal Weather Stations






























Interactive Weather Map New forecast layout! Learn more

10-Day Weather Forecast

Advertisements
Track Severe Weather on mobile